createdAt,value
2023-05-13T00:02:36.971Z,4.70
2023-05-13T00:08:08.234Z,4.30
2023-05-13T00:13:34.560Z,4.60
2023-05-13T00:19:12.578Z,4.00
2023-05-13T00:24:50.701Z,4.00
2023-05-13T00:30:28.109Z,4.70
2023-05-13T00:35:55.451Z,4.50
2023-05-13T00:41:23.912Z,4.70
2023-05-13T00:46:56.831Z,4.10
2023-05-13T00:53:04.725Z,4.20
2023-05-13T00:59:35.307Z,4.80
2023-05-13T01:06:33.533Z,4.40
2023-05-13T01:12:28.121Z,3.80
2023-05-13T01:18:37.751Z,4.40
2023-05-13T01:24:10.680Z,3.80
2023-05-13T01:29:39.051Z,4.20
2023-05-13T01:35:05.290Z,4.50
2023-05-13T01:40:33.239Z,4.30
2023-05-13T01:46:15.727Z,4.50
2023-05-13T01:51:41.815Z,5.00
2023-05-13T01:57:07.227Z,4.70
2023-05-13T02:02:41.111Z,3.90
2023-05-13T02:13:41.396Z,3.50
2023-05-13T02:19:10.038Z,3.50
2023-05-13T02:24:40.683Z,3.40
2023-05-13T02:30:11.762Z,3.30
2023-05-13T02:35:39.838Z,3.60
2023-05-13T02:41:26.674Z,3.90
2023-05-13T02:47:11.497Z,4.60
2023-05-13T02:52:52.174Z,4.00
2023-05-13T02:58:20.106Z,4.90
2023-05-13T03:03:51.870Z,6.50
2023-05-13T03:09:26.164Z,4.30
2023-05-13T03:15:22.611Z,4.10
2023-05-13T03:21:13.467Z,4.80
2023-05-13T03:26:51.770Z,5.10
2023-05-13T03:32:32.354Z,4.80
2023-05-13T03:37:59.264Z,5.50
2023-05-13T03:43:38.195Z,4.80
2023-05-13T03:49:09.065Z,4.70
2023-05-13T03:54:40.000Z,5.70
2023-05-13T04:00:28.321Z,4.60
2023-05-13T04:05:56.947Z,4.80
2023-05-13T04:11:25.122Z,3.80
2023-05-13T04:16:52.321Z,4.50
2023-05-13T04:22:29.372Z,4.80
2023-05-13T04:27:54.142Z,5.00
2023-05-13T04:33:31.714Z,5.10
2023-05-13T04:39:17.114Z,5.00
2023-05-13T04:44:45.808Z,5.00
2023-05-13T04:50:15.291Z,5.30
2023-05-13T04:55:46.031Z,5.20
2023-05-13T05:01:13.246Z,5.00
2023-05-13T05:06:38.882Z,5.50
2023-05-13T05:12:05.051Z,5.20
2023-05-13T05:17:44.646Z,5.10
2023-05-13T05:23:12.148Z,4.80
2023-05-13T05:28:52.506Z,5.50
2023-05-13T05:34:27.638Z,4.50
2023-05-13T05:39:53.050Z,4.90
2023-05-13T05:45:21.591Z,4.90
2023-05-13T05:50:46.650Z,5.10
2023-05-13T05:56:21.356Z,4.90
2023-05-13T06:01:46.446Z,5.40
2023-05-13T06:07:15.742Z,6.00
2023-05-13T06:12:59.227Z,5.10
2023-05-13T06:18:44.287Z,4.90
2023-05-13T06:24:11.940Z,5.00
2023-05-13T06:29:38.885Z,5.70
2023-05-13T06:35:03.875Z,4.60
2023-05-13T06:40:35.622Z,5.20
2023-05-13T06:46:02.457Z,4.80
2023-05-13T06:52:01.497Z,4.60
2023-05-13T06:57:47.548Z,4.60
2023-05-13T07:03:14.904Z,5.30
2023-05-13T07:08:50.943Z,5.10
2023-05-13T07:14:25.514Z,5.60
2023-05-13T07:26:24.063Z,4.90
2023-05-13T07:32:43.100Z,5.10
2023-05-13T07:38:51.615Z,5.10
2023-05-13T07:44:25.439Z,5.00
2023-05-13T07:50:01.661Z,5.60
2023-05-13T07:55:29.089Z,5.40
2023-05-13T08:00:55.457Z,5.20
2023-05-13T08:06:23.313Z,5.00
2023-05-13T08:11:51.242Z,5.50
2023-05-13T08:17:25.642Z,4.90
2023-05-13T08:22:50.476Z,5.70
2023-05-13T08:28:18.568Z,5.80
2023-05-13T08:33:47.911Z,5.10
2023-05-13T08:39:12.265Z,6.00
2023-05-13T08:44:45.102Z,6.90
2023-05-13T08:50:12.665Z,5.50
2023-05-13T08:55:43.420Z,5.40
2023-05-13T09:01:10.779Z,5.90
2023-05-13T09:06:41.498Z,5.60
2023-05-13T09:12:06.437Z,5.60
2023-05-13T09:17:39.719Z,7.30
2023-05-13T09:23:11.901Z,6.40
2023-05-13T09:28:37.482Z,5.50
2023-05-13T09:34:06.051Z,6.20
2023-05-13T09:39:40.474Z,5.80
2023-05-13T09:45:16.092Z,5.80
2023-05-13T09:50:54.137Z,5.90
2023-05-13T09:56:24.371Z,6.00
2023-05-13T10:01:54.032Z,6.10
2023-05-13T10:07:26.924Z,5.80
2023-05-13T10:13:15.640Z,6.50
2023-05-13T10:18:46.970Z,5.80
2023-05-13T10:24:38.567Z,4.60
2023-05-13T10:30:39.493Z,4.90
2023-05-13T10:36:27.321Z,4.60
2023-05-13T10:42:31.865Z,4.50
2023-05-13T10:48:07.549Z,4.50
2023-05-13T10:53:36.799Z,3.30
2023-05-13T10:59:05.767Z,3.90
2023-05-13T11:04:30.673Z,3.40
2023-05-13T11:09:55.705Z,3.40
2023-05-13T11:15:24.980Z,3.40
2023-05-13T11:21:10.412Z,2.90
2023-05-13T11:26:59.576Z,2.70
2023-05-13T11:33:15.684Z,2.90
2023-05-13T11:39:28.632Z,2.20
2023-05-13T11:44:58.099Z,1.80
2023-05-13T11:50:35.360Z,2.40
2023-05-13T11:56:22.849Z,2.80
2023-05-13T12:02:01.659Z,1.70
2023-05-13T12:07:39.066Z,2.40
2023-05-13T12:13:04.226Z,2.40
2023-05-13T12:18:34.026Z,2.10
2023-05-13T12:24:22.040Z,2.60
2023-05-13T12:30:28.895Z,2.40
